createdAt,value
2018-03-01T00:00:34.309Z,10.57
2018-03-01T00:03:00.574Z,8.48
2018-03-01T00:05:26.795Z,9.95
2018-03-01T00:07:53.102Z,15.57
2018-03-01T00:10:19.385Z,13.75
2018-03-01T00:12:45.623Z,12.95
2018-03-01T00:15:11.949Z,5.82
2018-03-01T00:17:38.187Z,9.93
2018-03-01T00:20:04.435Z,12.98
2018-03-01T00:22:35.793Z,10.70
2018-03-01T00:25:02.052Z,9.27
2018-03-01T00:27:28.296Z,11.43
2018-03-01T00:29:54.534Z,9.27
2018-03-01T00:32:20.808Z,10.18
2018-03-01T00:34:47.018Z,7.68
2018-03-01T00:37:13.224Z,16.27
2018-03-01T00:39:39.487Z,11.70
2018-03-01T00:42:05.926Z,10.20
2018-03-01T00:44:32.190Z,10.90
2018-03-01T00:46:58.398Z,8.05
2018-03-01T00:49:24.622Z,9.40
2018-03-01T00:51:50.867Z,7.25
2018-03-01T00:54:17.092Z,12.35
2018-03-01T00:56:43.335Z,9.93
2018-03-01T00:59:09.607Z,9.90
2018-03-01T01:01:35.842Z,9.88
2018-03-01T01:04:02.071Z,7.00
2018-03-01T01:06:28.283Z,16.67
2018-03-01T01:08:54.540Z,12.73
2018-03-01T01:11:20.773Z,19.67
2018-03-01T01:13:46.978Z,18.92
2018-03-01T01:16:13.251Z,9.75
2018-03-01T01:18:39.480Z,9.88
2018-03-01T01:21:05.729Z,13.73
2018-03-01T01:23:31.943Z,10.48
2018-03-01T01:25:58.171Z,17.77
2018-03-01T01:28:24.454Z,14.82
2018-03-01T01:30:50.684Z,6.30
2018-03-01T01:33:16.943Z,13.23
2018-03-01T01:35:43.206Z,6.43
2018-03-01T01:38:09.427Z,8.32
2018-03-01T01:40:35.675Z,11.10
2018-03-01T01:43:01.885Z,8.82
2018-03-01T01:45:28.139Z,13.90
2018-03-01T01:47:54.379Z,8.20
2018-03-01T01:50:20.616Z,8.95
2018-03-01T01:52:46.852Z,13.27
2018-03-01T01:55:13.083Z,6.82
2018-03-01T01:57:39.324Z,13.93
2018-03-01T02:00:05.587Z,10.80
2018-03-01T02:02:31.804Z,12.07
2018-03-01T02:04:58.284Z,9.00
2018-03-01T02:07:24.502Z,5.57
2018-03-01T02:09:50.723Z,8.93
2018-03-01T02:12:16.960Z,10.45
2018-03-01T02:14:43.223Z,11.12
2018-03-01T02:17:09.435Z,10.32
2018-03-01T02:19:35.685Z,9.43
2018-03-01T02:22:01.908Z,7.65
2018-03-01T02:24:28.192Z,13.50
2018-03-01T02:26:54.451Z,9.85
2018-03-01T02:29:20.708Z,11.02
2018-03-01T02:31:46.951Z,6.85
2018-03-01T02:34:13.219Z,11.25
2018-03-01T02:36:39.427Z,9.13
2018-03-01T02:39:05.663Z,23.75
2018-03-01T02:41:31.895Z,14.18
2018-03-01T02:43:58.113Z,7.82
2018-03-01T02:46:24.339Z,7.57
2018-03-01T02:48:50.585Z,8.63
2018-03-01T02:51:16.835Z,7.10
2018-03-01T02:53:43.090Z,6.55
2018-03-01T02:56:09.303Z,14.70
2018-03-01T02:58:35.531Z,8.57
2018-03-01T03:01:01.743Z,8.85
2018-03-01T03:03:27.992Z,17.17
2018-03-01T03:05:54.263Z,10.00
2018-03-01T03:08:20.488Z,10.13
2018-03-01T03:10:46.743Z,8.50
2018-03-01T03:13:12.968Z,15.77
2018-03-01T03:15:39.217Z,7.25
2018-03-01T03:18:05.426Z,8.73
2018-03-01T03:20:31.668Z,6.80
2018-03-01T03:22:57.904Z,13.18
2018-03-01T03:25:24.124Z,9.50
2018-03-01T03:27:50.392Z,6.28
2018-03-01T03:30:16.601Z,7.05
2018-03-01T03:32:42.830Z,7.97
2018-03-01T03:35:09.076Z,5.80
2018-03-01T03:37:35.316Z,18.10
2018-03-01T03:40:01.564Z,8.52
2018-03-01T03:42:27.779Z,10.57
2018-03-01T03:44:54.007Z,6.30
2018-03-01T03:47:20.316Z,9.23
2018-03-01T03:49:46.526Z,10.75
2018-03-01T03:52:12.784Z,8.77
2018-03-01T03:54:39.020Z,6.80
2018-03-01T03:57:05.234Z,9.88
2018-03-01T03:59:31.479Z,9.30
2018-03-01T04:01:57.697Z,14.55
2018-03-01T04:04:23.908Z,13.82
2018-03-01T04:06:50.176Z,13.15
2018-03-01T04:09:16.383Z,8.35
2018-03-01T04:11:42.635Z,7.37
2018-03-01T04:14:08.852Z,7.37
2018-03-01T04:16:35.128Z,7.32
2018-03-01T04:19:01.391Z,12.63
2018-03-01T04:21:27.635Z,9.65
2018-03-01T04:23:53.843Z,14.50
2018-03-01T04:26:20.072Z,7.18
2018-03-01T04:28:46.304Z,8.80
2018-03-01T04:31:12.527Z,22.20
2018-03-01T04:33:38.799Z,15.68
2018-03-01T04:36:05.096Z,8.05
2018-03-01T04:38:31.300Z,11.40
2018-03-01T04:40:57.512Z,9.27
2018-03-01T04:43:23.766Z,8.18
2018-03-01T04:45:49.983Z,11.73
2018-03-01T04:48:16.268Z,9.45
2018-03-01T04:50:42.487Z,11.82
2018-03-01T04:53:08.708Z,9.55
2018-03-01T04:55:34.952Z,5.95
2018-03-01T04:58:01.176Z,8.10
2018-03-01T05:00:27.406Z,8.50
2018-03-01T05:02:53.627Z,8.40
2018-03-01T05:05:19.868Z,14.02
2018-03-01T05:07:46.080Z,8.02
2018-03-01T05:10:12.317Z,8.65
2018-03-01T05:12:38.530Z,6.82
2018-03-01T05:15:04.779Z,9.43
2018-03-01T05:17:30.998Z,7.65
2018-03-01T05:19:57.219Z,10.18
2018-03-01T05:22:23.464Z,7.87
2018-03-01T05:24:49.703Z,15.40
2018-03-01T05:27:15.939Z,9.50
2018-03-01T05:29:42.222Z,8.18
2018-03-01T05:32:08.467Z,12.45
2018-03-01T05:34:34.720Z,7.50
2018-03-01T05:37:00.959Z,9.18
2018-03-01T05:39:27.202Z,11.55
2018-03-01T05:41:53.455Z,11.48
2018-03-01T05:44:19.708Z,9.05
2018-03-01T05:46:45.939Z,16.02
2018-03-01T05:49:12.190Z,8.30
2018-03-01T05:51:38.403Z,6.50
2018-03-01T05:54:04.661Z,15.25
2018-03-01T05:56:30.867Z,14.10
2018-03-01T05:58:57.111Z,9.15
2018-03-01T06:01:23.350Z,10.68
2018-03-01T06:03:49.601Z,18.02
2018-03-01T06:06:15.803Z,6.55
2018-03-01T06:08:42.040Z,18.05
2018-03-01T06:11:08.271Z,12.35
2018-03-01T06:13:34.499Z,7.97
2018-03-01T06:16:00.735Z,5.55
2018-03-01T06:18:26.963Z,8.25
2018-03-01T06:20:53.223Z,7.50
2018-03-01T06:23:19.463Z,7.18
2018-03-01T06:25:45.720Z,8.13
2018-03-01T06:28:11.936Z,8.63
2018-03-01T06:30:38.179Z,4.50
2018-03-01T06:33:04.436Z,8.07
2018-03-01T06:35:30.667Z,8.95
2018-03-01T06:37:56.907Z,8.10
2018-03-01T06:40:23.143Z,14.30
2018-03-01T06:42:49.375Z,16.87
2018-03-01T06:45:15.579Z,10.77
2018-03-01T06:47:41.832Z,10.60
2018-03-01T06:50:08.043Z,11.00
2018-03-01T06:52:34.287Z,7.15
2018-03-01T06:55:00.491Z,19.05
2018-03-01T06:57:26.751Z,12.50
2018-03-01T06:59:52.964Z,16.60
2018-03-01T07:02:19.212Z,7.20
2018-03-01T07:04:45.451Z,10.38
2018-03-01T07:07:11.671Z,13.40
2018-03-01T07:09:37.971Z,11.55
2018-03-01T07:12:04.294Z,9.48
2018-03-01T07:14:30.540Z,12.35
2018-03-01T07:16:56.792Z,13.98
2018-03-01T07:19:23.039Z,14.82
2018-03-01T07:21:49.319Z,32.17
2018-03-01T07:24:15.562Z,18.45
2018-03-01T07:26:41.812Z,13.73
2018-03-01T07:29:08.028Z,17.70
2018-03-01T07:31:34.264Z,17.20
2018-03-01T07:34:00.483Z,21.23
2018-03-01T07:36:26.720Z,15.03
2018-03-01T07:38:52.934Z,12.33
2018-03-01T07:41:19.179Z,18.63
2018-03-01T07:43:45.401Z,14.23
2018-03-01T07:46:11.655Z,34.73
2018-03-01T07:48:37.916Z,16.83
2018-03-01T07:51:04.168Z,18.87
2018-03-01T07:53:30.424Z,14.77
2018-03-01T07:55:56.651Z,19.33
2018-03-01T07:58:22.887Z,18.37
2018-03-01T08:00:49.116Z,15.37
2018-03-01T08:03:15.359Z,20.13
2018-03-01T08:05:41.591Z,21.93
2018-03-01T08:08:07.820Z,15.33
2018-03-01T08:10:34.074Z,19.87
2018-03-01T08:13:00.359Z,13.90
2018-03-01T08:15:26.575Z,12.90
2018-03-01T08:17:52.802Z,12.13
2018-03-01T08:20:19.061Z,14.20
2018-03-01T08:22:45.267Z,12.20
2018-03-01T08:25:11.496Z,18.53
2018-03-01T08:27:37.720Z,15.37
2018-03-01T08:30:04.024Z,14.80
2018-03-01T08:32:30.272Z,16.80
2018-03-01T08:34:56.531Z,18.53
2018-03-01T08:37:22.768Z,16.47
2018-03-01T08:39:49.020Z,15.67
2018-03-01T08:42:15.285Z,15.63
2018-03-01T08:44:41.501Z,16.37
2018-03-01T08:47:07.740Z,15.63
2018-03-01T08:49:33.948Z,17.17
2018-03-01T08:52:00.219Z,13.83
2018-03-01T08:54:26.442Z,19.67
2018-03-01T08:56:52.676Z,17.50
2018-03-01T08:59:18.892Z,12.17
2018-03-01T09:01:45.127Z,15.40
2018-03-01T09:04:11.348Z,16.97
2018-03-01T09:06:37.612Z,14.23
2018-03-01T09:09:03.912Z,15.13
2018-03-01T09:11:30.148Z,14.20
2018-03-01T09:13:56.418Z,15.53
2018-03-01T09:16:22.688Z,15.23
2018-03-01T09:18:48.939Z,13.93
2018-03-01T09:21:15.157Z,13.20
2018-03-01T09:23:41.424Z,12.63
2018-03-01T09:26:07.671Z,14.00
2018-03-01T09:28:33.916Z,16.87
2018-03-01T09:31:00.172Z,13.50
2018-03-01T09:33:26.449Z,13.83
2018-03-01T09:35:52.685Z,16.70
2018-03-01T09:38:18.906Z,14.30
2018-03-01T09:40:45.140Z,10.40
2018-03-01T09:43:11.364Z,15.23
2018-03-01T09:45:37.609Z,14.73
2018-03-01T09:48:03.887Z,14.13
2018-03-01T09:50:30.132Z,17.27
2018-03-01T09:52:56.382Z,16.17
2018-03-01T09:55:22.636Z,14.20
2018-03-01T09:57:48.880Z,18.03
2018-03-01T10:00:15.129Z,12.73
2018-03-01T10:02:41.360Z,16.87
2018-03-01T10:05:07.617Z,15.63
2018-03-01T10:07:33.864Z,11.60
2018-03-01T10:10:00.095Z,10.97
2018-03-01T10:12:26.343Z,12.40
2018-03-01T10:14:52.592Z,10.53
2018-03-01T10:17:18.828Z,15.17
2018-03-01T10:19:45.057Z,20.97
2018-03-01T10:22:11.311Z,14.00
2018-03-01T10:24:37.528Z,24.27
2018-03-01T10:27:03.745Z,15.40
2018-03-01T10:29:29.968Z,15.93
2018-03-01T10:31:56.179Z,17.30
2018-03-01T10:34:22.456Z,14.37
2018-03-01T10:36:48.675Z,16.03
2018-03-01T10:39:14.909Z,13.20
2018-03-01T10:41:41.144Z,14.77
2018-03-01T10:44:07.423Z,16.63
2018-03-01T10:46:33.640Z,17.07
2018-03-01T10:48:59.888Z,17.83
2018-03-01T10:51:26.128Z,22.60
2018-03-01T10:53:52.378Z,16.23
2018-03-01T10:56:18.600Z,15.27
2018-03-01T10:58:44.816Z,23.97
2018-03-01T11:01:17.035Z,19.20
2018-03-01T11:03:43.290Z,20.37
2018-03-01T11:06:09.528Z,16.27
2018-03-01T11:08:35.760Z,19.57
2018-03-01T11:11:02.051Z,18.63
2018-03-01T11:13:28.371Z,18.40
2018-03-01T11:15:54.600Z,19.00
2018-03-01T11:18:20.839Z,19.17
2018-03-01T11:20:47.095Z,18.80
2018-03-01T11:23:13.418Z,20.27
2018-03-01T11:25:39.640Z,18.27
2018-03-01T11:28:05.916Z,18.27
2018-03-01T11:30:32.124Z,20.17
2018-03-01T11:32:58.357Z,20.83
2018-03-01T11:35:24.576Z,20.03
2018-03-01T11:37:50.836Z,19.80
2018-03-01T11:40:17.055Z,20.23
2018-03-01T11:42:43.276Z,22.33
2018-03-01T11:45:09.520Z,18.43
2018-03-01T11:47:35.747Z,18.37
2018-03-01T11:50:02.056Z,20.37
2018-03-01T11:52:28.279Z,22.87
2018-03-01T11:54:54.524Z,19.77
2018-03-01T11:57:20.807Z,21.57
2018-03-01T11:59:47.011Z,18.03
2018-03-01T12:02:13.228Z,20.47
2018-03-01T12:04:39.491Z,20.83
2018-03-01T12:07:05.719Z,19.93
2018-03-01T12:09:32.012Z,19.60
2018-03-01T12:11:58.276Z,18.40
2018-03-01T12:14:24.504Z,18.00
2018-03-01T12:16:50.776Z,17.17
2018-03-01T12:19:17.044Z,20.07
2018-03-01T12:21:43.288Z,16.10
2018-03-01T12:24:09.515Z,18.73
2018-03-01T12:26:35.764Z,14.67
2018-03-01T12:29:01.995Z,17.30
2018-03-01T12:31:28.255Z,23.73
2018-03-01T12:33:54.480Z,17.10
2018-03-01T12:36:20.703Z,16.63
2018-03-01T12:38:46.956Z,14.03
2018-03-01T12:41:13.191Z,17.80
2018-03-01T12:43:39.423Z,14.70
2018-03-01T12:46:05.707Z,13.30
2018-03-01T12:48:31.930Z,15.37
2018-03-01T12:50:58.197Z,14.50
2018-03-01T12:53:24.480Z,13.97
2018-03-01T12:55:50.752Z,14.20
2018-03-01T12:58:17.036Z,16.03
2018-03-01T13:00:43.370Z,16.13
2018-03-01T13:03:09.608Z,14.27
2018-03-01T13:05:35.920Z,14.70
2018-03-01T13:08:02.220Z,16.70
2018-03-01T13:10:28.504Z,13.33
2018-03-01T13:12:54.772Z,18.80
2018-03-01T13:15:21.073Z,22.33
2018-03-01T13:17:47.332Z,13.30
2018-03-01T13:20:13.617Z,13.03
2018-03-01T13:22:39.904Z,18.30
2018-03-01T13:25:06.316Z,16.70
2018-03-01T13:27:32.585Z,18.67
2018-03-01T13:29:58.835Z,16.83
2018-03-01T13:32:26.079Z,16.43
2018-03-01T13:48:24.796Z,15.93
2018-03-01T13:50:51.068Z,16.60
2018-03-01T13:53:17.372Z,14.13
2018-03-01T13:55:43.650Z,15.43
2018-03-01T13:58:09.900Z,18.20
2018-03-01T14:00:36.168Z,19.10
2018-03-01T14:03:02.462Z,19.90
2018-03-01T14:05:28.764Z,16.47
2018-03-01T14:07:55.982Z,15.17
2018-03-01T14:10:22.260Z,16.27
2018-03-01T14:26:34.324Z,16.50
2018-03-01T14:31:57.940Z,18.37
2018-03-01T14:34:24.163Z,18.90
2018-03-01T14:36:50.412Z,17.20
2018-03-01T14:39:16.631Z,19.00
2018-03-01T14:41:42.871Z,18.57
2018-03-01T14:44:09.100Z,16.43
2018-03-01T14:46:35.319Z,14.60
2018-03-01T14:49:01.595Z,16.57
2018-03-01T14:51:27.886Z,16.87
2018-03-01T14:53:54.128Z,18.30
2018-03-01T14:56:20.353Z,19.00
2018-03-01T14:58:46.596Z,17.17
2018-03-01T15:01:12.836Z,16.63
2018-03-01T15:03:39.096Z,15.33
2018-03-01T15:06:05.327Z,19.90
2018-03-01T15:08:31.583Z,13.10
2018-03-01T15:10:57.819Z,17.57
2018-03-01T15:13:24.066Z,16.53
2018-03-01T15:15:50.412Z,14.03
2018-03-01T15:18:16.628Z,17.63
2018-03-01T15:20:42.874Z,18.47
2018-03-01T15:23:09.084Z,15.50
2018-03-01T15:25:35.344Z,17.53
2018-03-01T15:28:01.635Z,13.67
2018-03-01T15:30:27.844Z,16.27
2018-03-01T15:32:54.083Z,16.97
2018-03-01T15:35:20.315Z,15.53
2018-03-01T15:37:46.551Z,15.43
2018-03-01T15:40:12.776Z,15.23
2018-03-01T15:42:39.060Z,16.50
2018-03-01T15:45:05.333Z,18.43
2018-03-01T15:47:31.581Z,14.33
2018-03-01T15:49:57.827Z,15.27
2018-03-01T15:52:24.093Z,12.87
2018-03-01T15:54:50.316Z,17.73
2018-03-01T15:57:16.544Z,16.57
2018-03-01T15:59:42.805Z,17.57
2018-03-01T16:02:09.041Z,13.80
2018-03-01T16:04:35.300Z,12.90
2018-03-01T16:07:01.512Z,19.53
2018-03-01T16:09:27.760Z,16.03
2018-03-01T16:11:53.992Z,15.33
2018-03-01T16:14:20.279Z,15.27
2018-03-01T16:16:46.484Z,15.83
2018-03-01T16:19:12.755Z,12.73
2018-03-01T16:21:38.975Z,16.10
2018-03-01T16:24:05.234Z,14.97
2018-03-01T16:26:31.475Z,23.60
2018-03-01T16:28:57.785Z,23.53
2018-03-01T16:31:24.181Z,23.83
2018-03-01T16:33:50.440Z,26.73
2018-03-01T16:36:16.722Z,30.67
2018-03-01T16:38:42.971Z,26.60
2018-03-01T16:41:09.227Z,27.80
2018-03-01T16:43:35.464Z,25.60
2018-03-01T16:46:01.691Z,23.33
2018-03-01T16:48:27.947Z,24.47
2018-03-01T16:50:54.215Z,25.50
2018-03-01T16:53:20.462Z,29.10
2018-03-01T16:55:46.712Z,29.83
2018-03-01T16:58:13.376Z,23.27
2018-03-01T17:00:40.056Z,34.33
2018-03-01T17:03:06.642Z,23.97
2018-03-01T17:05:33.127Z,28.77
2018-03-01T17:07:59.437Z,25.87
2018-03-01T17:10:26.035Z,28.00
2018-03-01T17:12:52.639Z,26.40
2018-03-01T17:15:19.229Z,27.03
2018-03-01T17:17:45.496Z,25.47
2018-03-01T17:20:11.960Z,30.30
2018-03-01T17:22:38.377Z,30.33
2018-03-01T17:25:04.972Z,25.07
2018-03-01T17:27:31.812Z,28.20
2018-03-01T17:29:58.119Z,28.87
2018-03-01T17:32:24.672Z,27.97
2018-03-01T17:34:51.111Z,22.43
2018-03-01T17:37:17.617Z,28.80
2018-03-01T17:39:44.142Z,25.30
2018-03-01T17:42:11.809Z,22.07
2018-03-01T17:44:38.612Z,18.87
2018-03-01T17:47:05.422Z,28.43
2018-03-01T17:49:33.136Z,29.47
2018-03-01T17:51:59.893Z,24.43
2018-03-01T17:54:27.560Z,28.20
2018-03-01T17:56:54.220Z,22.90
2018-03-01T17:59:20.847Z,29.47
2018-03-01T18:01:47.217Z,27.40
2018-03-01T18:04:13.597Z,20.00
2018-03-01T18:06:40.123Z,26.97
2018-03-01T18:09:06.626Z,21.93
2018-03-01T18:11:32.876Z,29.83
2018-03-01T18:13:59.139Z,28.13
2018-03-01T18:16:25.363Z,22.67
2018-03-01T18:18:51.635Z,21.57
2018-03-01T18:21:18.076Z,31.27
2018-03-01T18:23:44.737Z,21.30
2018-03-01T18:26:10.992Z,23.63
2018-03-01T18:28:37.263Z,21.63
2018-03-01T18:31:03.503Z,21.67
2018-03-01T18:33:29.777Z,26.47
2018-03-01T18:35:56.019Z,19.90
2018-03-01T18:38:22.255Z,24.40
2018-03-01T18:40:48.667Z,26.97
2018-03-01T18:43:15.016Z,27.30
2018-03-01T18:45:41.427Z,24.80
2018-03-01T18:48:07.662Z,31.63
2018-03-01T18:50:33.971Z,22.40
2018-03-01T18:53:00.335Z,28.87
2018-03-01T18:55:26.563Z,24.93
2018-03-01T18:57:52.823Z,25.03
2018-03-01T19:00:19.287Z,29.83
2018-03-01T19:02:45.524Z,27.97
2018-03-01T19:05:11.801Z,31.33
2018-03-01T19:07:38.068Z,26.80
2018-03-01T19:10:04.300Z,31.67
2018-03-01T19:12:30.597Z,32.13
2018-03-01T19:14:57.128Z,23.63
2018-03-01T19:17:23.380Z,31.97
2018-03-01T19:19:49.630Z,30.73
2018-03-01T19:22:16.032Z,25.50
2018-03-01T19:24:42.308Z,35.83
2018-03-01T19:27:08.548Z,23.20
2018-03-01T19:29:34.820Z,24.43
2018-03-01T19:32:01.043Z,24.97
2018-03-01T19:34:27.276Z,31.13
2018-03-01T19:36:53.507Z,27.33
2018-03-01T19:39:19.747Z,33.27
2018-03-01T19:41:46.015Z,44.33
2018-03-01T19:44:12.245Z,43.30
2018-03-01T19:46:45.420Z,23.60
2018-03-01T19:49:11.683Z,35.63
2018-03-01T19:51:37.964Z,26.20
2018-03-01T19:54:04.244Z,32.40
2018-03-01T19:56:30.500Z,22.07
2018-03-01T19:58:56.796Z,26.50
2018-03-01T20:01:23.030Z,26.17
2018-03-01T20:03:49.559Z,29.13
2018-03-01T20:06:16.068Z,29.03
2018-03-01T20:08:42.723Z,25.73
2018-03-01T20:11:09.378Z,25.90
2018-03-01T20:13:47.747Z,24.57
2018-03-01T20:16:14.287Z,35.50
2018-03-01T20:18:40.610Z,24.37
2018-03-01T20:21:07.185Z,26.80
2018-03-01T20:23:33.688Z,20.57
2018-03-01T20:26:00.189Z,28.60
2018-03-01T20:28:26.776Z,32.63
2018-03-01T20:30:53.041Z,26.60
2018-03-01T20:33:19.594Z,31.20
2018-03-01T20:35:45.967Z,25.37
2018-03-01T20:38:12.203Z,30.37
2018-03-01T20:40:38.515Z,30.53
2018-03-01T20:43:04.971Z,33.23
2018-03-01T20:45:31.687Z,28.50
2018-03-01T20:47:58.280Z,30.90
2018-03-01T20:50:24.543Z,26.10
2018-03-01T20:52:50.800Z,27.50
2018-03-01T20:55:17.404Z,29.20
2018-03-01T20:57:44.138Z,24.77
2018-03-01T21:00:10.377Z,22.30
2018-03-01T21:02:36.950Z,30.70
2018-03-01T21:05:03.248Z,28.77
2018-03-01T21:07:29.719Z,31.03
2018-03-01T21:09:56.092Z,33.90
2018-03-01T21:12:22.394Z,29.40
2018-03-01T21:14:48.614Z,29.10
2018-03-01T21:17:14.972Z,26.93
2018-03-01T21:19:41.283Z,24.83
2018-03-01T21:22:07.581Z,30.03
2018-03-01T21:24:33.953Z,26.37
2018-03-01T21:27:00.185Z,42.80
2018-03-01T21:29:26.450Z,38.90
2018-03-01T21:31:52.672Z,24.67
2018-03-01T21:34:19.295Z,26.70
2018-03-01T21:36:45.573Z,23.57
2018-03-01T21:39:12.141Z,27.90
2018-03-01T21:41:38.451Z,27.77
2018-03-01T21:44:04.747Z,26.23
2018-03-01T21:46:31.169Z,18.30
2018-03-01T21:48:57.452Z,33.70
2018-03-01T21:51:23.992Z,28.57
2018-03-01T21:53:50.358Z,28.80
2018-03-01T21:56:16.763Z,22.43
2018-03-01T21:58:43.365Z,26.93
2018-03-01T22:01:11.102Z,26.47
2018-03-01T22:03:37.710Z,21.87
2018-03-01T22:06:04.322Z,24.27
2018-03-01T22:08:30.688Z,24.57
2018-03-01T22:10:57.972Z,20.98
2018-03-01T22:13:24.512Z,29.83
2018-03-01T22:15:50.978Z,31.17
2018-03-01T22:18:17.637Z,27.60
2018-03-01T22:20:44.374Z,26.87
2018-03-01T22:23:11.051Z,29.63
2018-03-01T22:25:37.612Z,23.63
2018-03-01T22:28:03.981Z,29.00
2018-03-01T22:30:30.300Z,30.10
2018-03-01T22:32:56.745Z,27.07
2018-03-01T22:35:23.180Z,28.37
2018-03-01T22:37:49.739Z,25.33
2018-03-01T22:40:16.396Z,20.57
2018-03-01T22:42:42.728Z,24.45
2018-03-01T22:45:09.385Z,29.73
2018-03-01T22:47:36.104Z,33.27
2018-03-01T22:50:02.915Z,21.87
2018-03-01T22:52:29.472Z,25.00
2018-03-01T22:54:56.067Z,24.40
2018-03-01T22:57:22.622Z,26.67
2018-03-01T22:59:49.888Z,22.63
2018-03-01T23:02:16.172Z,36.70
2018-03-01T23:04:42.708Z,30.77
2018-03-01T23:07:08.960Z,23.37
2018-03-01T23:09:35.502Z,35.20
2018-03-01T23:12:01.894Z,27.80
2018-03-01T23:14:28.277Z,23.03
2018-03-01T23:16:54.984Z,26.27
2018-03-01T23:19:21.499Z,24.85
2018-03-01T23:21:48.003Z,29.93
2018-03-01T23:24:14.412Z,36.27
2018-03-01T23:26:40.716Z,27.17
2018-03-01T23:29:06.973Z,25.23
2018-03-01T23:31:33.516Z,36.80
2018-03-01T23:34:00.172Z,23.17
2018-03-01T23:36:26.736Z,22.10
2018-03-01T23:38:53.199Z,24.73
2018-03-01T23:41:19.691Z,32.15
2018-03-01T23:43:46.090Z,32.55
2018-03-01T23:46:12.611Z,19.80
2018-03-01T23:48:38.994Z,24.67
2018-03-01T23:51:05.540Z,24.20
2018-03-01T23:53:31.936Z,28.13
2018-03-01T23:55:58.203Z,43.47
2018-03-01T23:58:24.731Z,20.70
